Time;durP1;ratioP1;P1;durP2;ratioP2;P2;SDS_P1;SDS_P2;PMS_P1;PMS_P2;Temp;Humidity;BMP_temperature;BMP_pressure;BME280_temperature;BME280_humidity;BME280_pressure;Samples;Min_cycle;Max_cycle;Signal;HPM_P1;HPM_P2
2021/07/02 00:00:15;;;;;;;11.82;10.07;;;18.90;99.90;;;;;;5020772;28;20097;-67
2021/07/02 00:02:43;;;;;;;8.65;7.85;;;18.90;99.90;;;;;;5023238;28;20037;-67
2021/07/02 00:05:12;;;;;;;14.48;10.70;;;18.90;99.90;;;;;;5018242;28;20115;-72
2021/07/02 00:07:39;;;;;;;17.27;10.23;;;18.90;99.90;;;;;;5021364;28;20418;-68
2021/07/02 00:10:07;;;;;;;11.57;9.43;;;18.80;99.90;;;;;;5019342;28;20113;-67
2021/07/02 00:12:34;;;;;;;11.35;8.98;;;18.80;99.90;;;;;;5037122;28;20529;-67
2021/07/02 00:15:04;;;;;;;13.70;9.98;;;18.80;99.90;;;;;;5021828;28;20136;-67
2021/07/02 00:17:31;;;;;;;14.00;10.43;;;18.80;99.90;;;;;;5022691;28;20077;-67
2021/07/02 00:19:58;;;;;;;14.35;10.90;;;18.80;99.90;;;;;;5017175;28;20053;-68
2021/07/02 00:22:25;;;;;;;11.57;10.32;;;18.80;99.90;;;;;;5020277;28;20069;-66
2021/07/02 00:24:52;;;;;;;13.77;9.90;;;18.80;99.90;;;;;;5019408;28;20436;-68
2021/07/02 00:27:18;;;;;;;11.77;9.27;;;18.70;99.90;;;;;;5023118;28;20099;-67
2021/07/02 00:29:46;;;;;;;9.88;8.98;;;18.70;99.90;;;;;;5016649;28;20054;-66
2021/07/02 00:32:12;;;;;;;14.43;9.75;;;18.70;99.90;;;;;;5021511;28;20041;-68
2021/07/02 00:34:39;;;;;;;13.48;9.57;;;18.70;99.90;;;;;;5020045;28;20123;-66
2021/07/02 00:37:06;;;;;;;10.15;9.13;;;18.70;99.90;;;;;;5017663;28;20037;-66
2021/07/02 00:39:33;;;;;;;13.32;9.52;;;18.70;99.90;;;;;;5034804;28;20661;-69
2021/07/02 00:42:00;;;;;;;11.60;9.30;;;18.70;99.90;;;;;;5020290;28;20052;-67
2021/07/02 00:44:37;;;;;;;12.13;10.43;;;18.70;99.90;;;;;;5019583;28;20111;-67
2021/07/02 00:47:04;;;;;;;13.50;9.20;;;18.70;99.90;;;;;;5020329;28;20148;-70
2021/07/02 00:49:36;;;;;;;11.77;10.18;;;18.70;99.90;;;;;;5020784;28;20049;-67
2021/07/02 00:52:06;;;;;;;9.27;8.18;;;18.70;99.90;;;;;;5019288;28;20112;-69
2021/07/02 00:54:35;;;;;;;11.95;9.57;;;18.70;99.90;;;;;;5036522;28;20076;-68
2021/07/02 00:57:04;;;;;;;10.77;9.45;;;18.70;99.90;;;;;;5016917;28;20048;-66
2021/07/02 00:59:31;;;;;;;12.43;8.93;;;18.60;99.90;;;;;;5023051;28;20506;-67
2021/07/02 01:01:59;;;;;;;14.68;8.93;;;18.60;99.90;;;;;;5037504;28;20044;-68
2021/07/02 01:04:28;;;;;;;10.50;9.48;;;18.60;99.90;;;;;;5025962;28;20103;-69
2021/07/02 01:06:58;;;;;;;13.70;10.07;;;18.60;99.90;;;;;;5039832;28;20099;-67
2021/07/02 01:09:27;;;;;;;13.52;10.73;;;18.60;99.90;;;;;;5022764;28;20061;-68
2021/07/02 01:11:54;;;;;;;11.75;10.55;;;18.60;99.90;;;;;;5020879;28;20049;-68
2021/07/02 01:14:22;;;;;;;8.93;7.93;;;18.50;99.90;;;;;;5030185;28;20096;-67
2021/07/02 01:16:49;;;;;;;11.55;9.18;;;18.50;99.90;;;;;;5022095;28;20124;-66
2021/07/02 01:19:17;;;;;;;9.80;8.80;;;18.50;99.90;;;;;;5024257;28;20127;-70
2021/07/02 01:21:45;;;;;;;19.67;10.63;;;18.50;99.90;;;;;;5016269;28;20029;-69
2021/07/02 01:24:15;;;;;;;12.13;9.70;;;18.50;99.90;;;;;;5038866;28;20050;-67
2021/07/02 01:26:42;;;;;;;10.38;9.38;;;18.50;99.90;;;;;;5022482;28;20163;-67
2021/07/02 01:29:10;;;;;;;11.60;9.93;;;18.50;99.90;;;;;;5034452;28;20145;-68
2021/07/02 01:31:37;;;;;;;15.40;10.02;;;18.50;99.90;;;;;;5038356;28;20329;-68
2021/07/02 01:34:06;;;;;;;11.75;9.52;;;18.50;99.90;;;;;;5039645;28;20376;-67
2021/07/02 01:36:35;;;;;;;11.45;10.43;;;18.50;99.90;;;;;;5015385;28;20107;-71
2021/07/02 01:39:06;;;;;;;9.73;8.38;;;18.50;99.90;;;;;;5022409;28;20140;-68
2021/07/02 01:41:34;;;;;;;9.25;7.88;;;18.50;99.90;;;;;;5023603;28;20404;-67
2021/07/02 01:44:02;;;;;;;10.73;9.20;;;18.50;99.90;;;;;;5020034;28;20500;-67
2021/07/02 01:46:30;;;;;;;11.60;9.75;;;18.40;99.90;;;;;;5022472;28;20132;-72
2021/07/02 01:48:57;;;;;;;12.93;11.02;;;18.40;99.90;;;;;;5049590;28;20107;-68
2021/07/02 01:51:27;;;;;;;10.38;9.48;;;18.40;99.90;;;;;;5024435;28;20132;-67
2021/07/02 01:53:56;;;;;;;10.25;9.18;;;18.40;99.90;;;;;;5035384;28;20064;-69
2021/07/02 01:56:24;;;;;;;11.70;9.27;;;18.30;99.90;;;;;;5023067;28;20041;-68
2021/07/02 01:58:54;;;;;;;10.25;9.20;;;18.30;99.90;;;;;;5021940;28;20049;-67
2021/07/02 02:01:30;;;;;;;9.10;8.20;;;18.30;99.90;;;;;;5021641;28;20519;-71
2021/07/02 02:04:02;;;;;;;11.70;9.93;;;18.30;99.90;;;;;;5037487;28;20076;-68
2021/07/02 02:06:30;;;;;;;17.77;10.18;;;18.30;99.90;;;;;;5021025;28;20038;-66
2021/07/02 02:08:57;;;;;;;14.27;10.52;;;18.20;99.90;;;;;;5024107;28;20046;-71
2021/07/02 02:11:28;;;;;;;10.95;9.85;;;18.20;99.90;;;;;;5032566;28;20045;-66
2021/07/02 02:13:58;;;;;;;15.25;10.40;;;18.20;99.90;;;;;;5019340;28;20104;-67
2021/07/02 02:16:27;;;;;;;15.48;11.63;;;18.20;99.90;;;;;;5035395;28;20050;-69
2021/07/02 02:18:59;;;;;;;11.82;9.43;;;18.20;99.90;;;;;;5038462;28;20056;-68
2021/07/02 02:21:26;;;;;;;12.07;10.82;;;18.20;99.90;;;;;;5019047;28;20057;-72
2021/07/02 02:23:53;;;;;;;12.65;10.30;;;18.20;99.90;;;;;;5020595;28;20045;-68
2021/07/02 02:26:21;;;;;;;11.88;10.35;;;18.10;99.90;;;;;;5019620;28;20049;-68
2021/07/02 02:28:47;;;;;;;11.20;9.93;;;18.10;99.90;;;;;;5041325;28;20132;-67
2021/07/02 02:31:15;;;;;;;15.30;11.18;;;18.10;99.90;;;;;;5019630;28;20099;-66
2021/07/02 02:33:46;;;;;;;13.82;12.48;;;18.10;99.90;;;;;;5020909;28;20148;-70
2021/07/02 02:36:13;;;;;;;12.73;11.10;;;18.00;99.90;;;;;;5021305;28;20076;-71
2021/07/02 02:38:40;;;;;;;13.65;11.05;;;18.10;99.90;;;;;;5022994;28;20041;-66
2021/07/02 02:41:08;;;;;;;13.18;10.70;;;18.10;99.90;;;;;;5023181;28;20049;-67
2021/07/02 02:43:35;;;;;;;16.85;12.40;;;18.00;99.90;;;;;;5021349;28;20065;-69
2021/07/02 02:46:03;;;;;;;13.02;10.85;;;18.00;99.90;;;;;;5021026;28;20057;-67
2021/07/02 02:48:30;;;;;;;13.70;11.00;;;18.00;99.90;;;;;;5017234;28;20045;-67
2021/07/02 02:50:58;;;;;;;17.75;12.55;;;18.00;99.90;;;;;;5039324;28;20049;-67
2021/07/02 02:53:25;;;;;;;16.38;10.82;;;18.00;99.90;;;;;;5018587;28;20054;-66
2021/07/02 02:55:53;;;;;;;13.63;11.43;;;18.00;99.90;;;;;;5039373;28;20162;-68
2021/07/02 02:58:21;;;;;;;14.77;12.10;;;18.10;99.90;;;;;;5018091;28;20103;-67
2021/07/02 03:00:48;;;;;;;13.90;11.75;;;18.10;99.90;;;;;;5018858;28;20048;-67
2021/07/02 03:03:16;;;;;;;11.80;10.60;;;18.10;99.90;;;;;;5021884;28;20037;-67
2021/07/02 03:05:53;;;;;;;12.40;10.25;;;18.10;99.90;;;;;;5017069;28;20052;-71
2021/07/02 03:08:21;;;;;;;13.02;10.68;;;18.10;99.90;;;;;;5038991;28;20345;-68
2021/07/02 03:10:53;;;;;;;11.73;10.52;;;18.10;99.90;;;;;;5016024;28;20185;-70
2021/07/02 03:13:20;;;;;;;10.80;9.70;;;18.10;99.90;;;;;;5022318;28;20381;-70
2021/07/02 03:15:47;;;;;;;13.75;12.40;;;18.10;99.90;;;;;;5037390;28;20096;-69
2021/07/02 03:18:14;;;;;;;22.65;12.60;;;18.20;99.90;;;;;;5016895;28;20446;-69
2021/07/02 03:20:42;;;;;;;12.57;11.25;;;18.20;99.90;;;;;;5021449;28;20041;-66
2021/07/02 03:23:09;;;;;;;11.35;10.10;;;18.20;99.90;;;;;;5019773;28;20135;-68
2021/07/02 03:25:36;;;;;;;11.57;9.88;;;18.20;99.90;;;;;;5022193;28;20153;-70
2021/07/02 03:28:05;;;;;;;14.63;10.93;;;18.20;99.90;;;;;;5050837;28;20049;-67
2021/07/02 03:30:32;;;;;;;12.80;11.60;;;18.30;99.90;;;;;;5038370;28;20100;-66
2021/07/02 03:32:59;;;;;;;12.50;10.52;;;18.30;99.90;;;;;;5018559;28;20048;-67
2021/07/02 03:35:27;;;;;;;12.82;11.38;;;18.30;99.90;;;;;;5039339;28;20045;-66
2021/07/02 03:37:55;;;;;;;14.70;11.77;;;18.30;99.90;;;;;;5015831;28;20126;-68
2021/07/02 03:40:22;;;;;;;13.07;11.68;;;18.40;99.90;;;;;;5022363;28;20514;-68
2021/07/02 03:42:54;;;;;;;12.77;11.27;;;18.40;99.90;;;;;;5019971;28;20558;-69
2021/07/02 03:45:21;;;;;;;14.85;12.15;;;18.40;99.90;;;;;;5052984;28;20140;-67
2021/07/02 03:47:48;;;;;;;19.63;11.65;;;18.40;99.90;;;;;;5018215;28;20347;-69
2021/07/02 03:50:16;;;;;;;15.35;11.65;;;18.50;99.90;;;;;;5040558;28;20084;-72
2021/07/02 03:52:43;;;;;;;15.05;11.93;;;18.50;99.90;;;;;;5035644;28;20107;-68
2021/07/02 03:55:11;;;;;;;20.25;13.63;;;18.50;99.90;;;;;;5023029;28;20135;-69
2021/07/02 03:57:38;;;;;;;18.73;11.45;;;18.50;99.90;;;;;;5020609;28;20049;-66
2021/07/02 04:00:06;;;;;;;14.45;13.05;;;18.50;99.90;;;;;;5019327;28;20037;-69
2021/07/02 04:02:39;;;;;;;11.95;10.75;;;18.50;99.90;;;;;;5017569;28;20118;-70
2021/07/02 04:05:07;;;;;;;13.63;11.50;;;18.50;99.90;;;;;;5020392;28;20041;-66
2021/07/02 04:07:34;;;;;;;15.90;13.43;;;18.60;99.90;;;;;;5020483;28;20130;-69
2021/07/02 04:10:00;;;;;;;13.52;11.75;;;18.60;99.90;;;;;;5018743;28;20111;-68
2021/07/02 04:12:27;;;;;;;20.27;12.18;;;18.60;99.90;;;;;;5018707;28;20128;-67
2021/07/02 04:14:54;;;;;;;16.33;12.85;;;18.70;99.90;;;;;;5021722;28;20114;-70
2021/07/02 04:17:21;;;;;;;15.50;13.48;;;18.70;99.90;;;;;;5019756;28;20566;-68
2021/07/02 04:19:48;;;;;;;13.50;12.10;;;18.80;99.90;;;;;;5021056;28;20518;-68
2021/07/02 04:22:15;;;;;;;14.57;12.60;;;18.90;99.90;;;;;;5019148;28;20103;-68
2021/07/02 04:24:43;;;;;;;17.95;13.35;;;18.90;99.90;;;;;;5021939;28;20057;-67
2021/07/02 04:27:13;;;;;;;14.65;12.70;;;19.00;99.90;;;;;;5021970;28;20517;-69
2021/07/02 04:29:40;;;;;;;17.35;12.68;;;19.10;99.90;;;;;;5020901;28;20045;-68
2021/07/02 04:32:08;;;;;;;15.55;10.70;;;19.10;99.90;;;;;;5020755;28;20053;-67
2021/07/02 04:34:35;;;;;;;16.10;13.45;;;19.20;99.90;;;;;;5025158;28;20513;-71
2021/07/02 04:37:02;;;;;;;15.02;12.50;;;19.20;99.90;;;;;;5023203;28;20077;-67
2021/07/02 04:39:35;;;;;;;18.60;12.57;;;19.20;99.90;;;;;;5026145;28;20057;-69
2021/07/02 04:42:02;;;;;;;17.40;11.93;;;19.20;99.90;;;;;;5022696;28;22829;-67
2021/07/02 04:44:29;;;;;;;13.95;12.57;;;19.30;99.90;;;;;;5024261;28;20064;-68
2021/07/02 04:46:56;;;;;;;21.45;13.25;;;19.30;99.90;;;;;;5023853;28;20092;-68
2021/07/02 04:49:23;;;;;;;13.70;12.35;;;19.40;99.90;;;;;;5025096;28;20041;-66
2021/07/02 04:51:50;;;;;;;19.63;13.43;;;19.40;99.90;;;;;;5024484;28;20072;-67
2021/07/02 04:54:17;;;;;;;12.13;10.98;;;19.50;99.90;;;;;;5022717;28;20064;-67
2021/07/02 04:56:47;;;;;;;13.90;11.70;;;19.50;99.90;;;;;;5026793;28;20046;-66
2021/07/02 04:59:16;;;;;;;13.80;11.38;;;19.50;99.90;;;;;;5022747;28;20049;-69
2021/07/02 05:01:43;;;;;;;12.52;11.38;;;19.60;99.90;;;;;;5022834;28;20118;-67
2021/07/02 05:04:10;;;;;;;12.35;11.05;;;19.60;99.90;;;;;;5020470;28;20127;-67
2021/07/02 05:06:40;;;;;;;11.55;10.35;;;19.70;99.90;;;;;;5024519;28;20412;-68
2021/07/02 05:09:07;;;;;;;14.82;11.18;;;19.70;99.90;;;;;;5021809;28;20041;-69
2021/07/02 05:11:34;;;;;;;13.52;12.13;;;19.80;99.90;;;;;;5026212;28;20045;-66
2021/07/02 05:14:04;;;;;;;12.27;11.07;;;19.90;99.90;;;;;;5019920;28;20151;-70
2021/07/02 05:16:31;;;;;;;12.65;9.95;;;20.00;99.90;;;;;;5025313;28;20057;-68
2021/07/02 05:18:59;;;;;;;12.73;11.50;;;20.00;99.90;;;;;;5022651;28;20057;-69
2021/07/02 05:21:26;;;;;;;10.85;9.52;;;20.10;99.90;;;;;;5024778;28;20085;-68
2021/07/02 05:23:53;;;;;;;12.23;9.82;;;20.10;99.90;;;;;;5021596;28;20333;-67
2021/07/02 05:26:20;;;;;;;16.05;9.93;;;20.20;99.90;;;;;;5026206;28;20046;-68
2021/07/02 05:28:47;;;;;;;12.57;11.10;;;20.30;99.90;;;;;;5022167;28;20171;-67
2021/07/02 05:31:17;;;;;;;12.50;11.35;;;20.40;99.90;;;;;;5025798;28;20452;-69
2021/07/02 05:33:44;;;;;;;11.18;9.43;;;20.60;99.90;;;;;;5020532;28;20044;-68
2021/07/02 05:36:11;;;;;;;12.73;11.52;;;20.60;99.90;;;;;;5025328;28;20076;-70
2021/07/02 05:38:38;;;;;;;11.32;9.27;;;20.70;99.90;;;;;;5021033;28;20081;-66
2021/07/02 05:41:05;;;;;;;11.25;10.23;;;20.80;99.90;;;;;;5025091;28;20057;-68
2021/07/02 05:43:32;;;;;;;14.30;11.45;;;20.90;99.90;;;;;;5020863;28;20091;-68
2021/07/02 05:45:59;;;;;;;9.73;8.90;;;21.00;99.90;;;;;;5022862;28;20042;-67
2021/07/02 05:48:27;;;;;;;10.55;9.45;;;21.00;99.90;;;;;;5022755;28;20044;-66
2021/07/02 05:50:54;;;;;;;9.30;8.50;;;21.10;99.90;;;;;;5024293;28;20038;-68
2021/07/02 05:53:21;;;;;;;11.82;10.70;;;21.10;99.90;;;;;;5021740;28;20050;-68
2021/07/02 05:55:47;;;;;;;9.85;8.95;;;21.20;99.90;;;;;;5023157;28;20053;-67
2021/07/02 05:58:14;;;;;;;9.25;8.45;;;21.20;99.90;;;;;;5023785;28;20045;-68
2021/07/02 06:00:42;;;;;;;10.88;9.85;;;21.30;99.90;;;;;;5022090;28;20045;-66
2021/07/02 06:03:08;;;;;;;14.00;9.50;;;21.40;99.90;;;;;;5023130;28;20049;-70
2021/07/02 06:05:36;;;;;;;11.45;10.40;;;21.50;99.90;;;;;;1325127;28;10023533;-68
2021/07/02 06:08:03;;;;;;;10.70;9.30;;;21.50;99.90;;;;;;3983224;28;10001240;-68
2021/07/02 06:10:30;;;;;;;10.43;9.10;;;21.50;99.90;;;;;;5020271;28;21429;-69
2021/07/02 06:12:58;;;;;;;10.20;7.97;;;21.60;99.90;;;;;;5024215;28;20130;-68
2021/07/02 06:15:25;;;;;;;12.90;9.80;;;21.50;99.90;;;;;;5022612;28;20059;-68
2021/07/02 06:17:53;;;;;;;9.85;8.85;;;21.60;99.90;;;;;;5022069;28;20037;-66
2021/07/02 06:20:25;;;;;;;10.43;8.40;;;21.60;99.90;;;;;;5022442;28;20045;-67
2021/07/02 06:22:52;;;;;;;12.63;8.10;;;21.60;99.90;;;;;;5023765;28;20042;-68
2021/07/02 06:25:19;;;;;;;8.18;7.30;;;21.70;99.90;;;;;;5021783;28;20103;-70
2021/07/02 06:27:46;;;;;;;8.90;8.00;;;21.80;99.90;;;;;;5021085;28;20053;-66
2021/07/02 06:30:17;;;;;;;12.38;7.25;;;21.90;99.90;;;;;;5022748;28;20384;-66
2021/07/02 06:32:45;;;;;;;9.60;8.05;;;22.00;99.90;;;;;;5023578;28;20132;-67
2021/07/02 06:35:12;;;;;;;8.60;7.63;;;22.10;99.90;;;;;;5023667;28;20045;-68
2021/07/02 06:37:39;;;;;;;10.05;9.02;;;22.10;99.90;;;;;;5022901;28;20038;-70
2021/07/02 06:40:08;;;;;;;7.90;7.13;;;22.10;99.90;;;;;;5020406;28;20159;-67
2021/07/02 06:42:35;;;;;;;9.40;7.22;;;22.20;99.90;;;;;;5022557;28;20141;-68
2021/07/02 06:45:03;;;;;;;17.95;7.70;;;22.30;99.90;;;;;;5022298;28;20115;-65
2021/07/02 06:47:30;;;;;;;7.75;6.43;;;22.30;99.90;;;;;;5021488;28;20061;-65
2021/07/02 06:49:57;;;;;;;9.25;8.45;;;22.30;99.90;;;;;;5020864;28;20110;-66
2021/07/02 06:52:24;;;;;;;8.88;6.97;;;22.40;99.90;;;;;;5023234;28;20471;-67
2021/07/02 06:54:51;;;;;;;11.95;7.68;;;22.40;99.90;;;;;;5018077;28;20140;-66
2021/07/02 06:57:18;;;;;;;8.75;6.78;;;22.40;99.90;;;;;;5021244;28;20522;-66
2021/07/02 06:59:45;;;;;;;9.20;7.90;;;22.40;99.90;;;;;;5021751;28;20041;-70
2021/07/02 07:02:13;;;;;;;12.10;7.15;;;22.40;99.90;;;;;;5021028;28;20056;-68
2021/07/02 07:04:40;;;;;;;7.32;6.60;;;22.50;99.90;;;;;;5023239;28;20068;-67
2021/07/02 07:07:09;;;;;;;12.95;7.28;;;22.50;99.90;;;;;;5020875;28;20403;-69
2021/07/02 07:09:37;;;;;;;12.68;7.57;;;22.60;99.90;;;;;;5023035;28;20053;-68
2021/07/02 07:12:05;;;;;;;9.43;6.25;;;22.60;99.90;;;;;;5017620;28;20079;-67
2021/07/02 07:14:33;;;;;;;7.53;6.47;;;22.70;99.90;;;;;;5024005;28;20073;-70
2021/07/02 07:17:01;;;;;;;9.23;5.82;;;22.80;99.90;;;;;;5021302;28;20045;-68
2021/07/02 07:19:29;;;;;;;10.65;6.47;;;22.90;99.90;;;;;;5020532;28;20124;-68
2021/07/02 07:21:56;;;;;;;6.22;5.47;;;22.90;99.90;;;;;;5019247;28;20111;-68
2021/07/02 07:24:23;;;;;;;9.65;6.85;;;23.00;99.90;;;;;;5020488;28;20099;-69
2021/07/02 07:26:55;;;;;;;11.10;6.82;;;23.10;99.90;;;;;;5019798;28;20438;-68
2021/07/02 07:29:23;;;;;;;7.93;6.60;;;23.20;99.90;;;;;;5021913;28;20046;-71
2021/07/02 07:31:51;;;;;;;7.88;6.55;;;23.20;99.90;;;;;;5019902;28;20069;-68
2021/07/02 07:35:05;;;;;;;7.65;6.95;;;23.30;99.90;;;;;;5021805;28;20042;-67
2021/07/02 07:37:17;;;;;;;25.23;10.18;;;23.40;99.90;;;;;;5017401;28;20045;-68
2021/07/02 07:39:44;;;;;;;9.13;6.13;;;23.50;99.90;;;;;;5019859;28;20353;-66
2021/07/02 07:42:10;;;;;;;8.38;6.07;;;23.60;99.90;;;;;;5021731;28;20144;-67
2021/07/02 07:44:37;;;;;;;6.53;5.93;;;23.70;99.90;;;;;;5018246;28;20049;-66
2021/07/02 07:47:04;;;;;;;14.30;6.97;;;23.80;99.90;;;;;;5023899;28;20045;-68
2021/07/02 07:49:35;;;;;;;6.47;5.93;;;23.80;99.90;;;;;;5021302;28;20038;-67
2021/07/02 07:54:30;;;;;;;6.45;5.78;;;23.90;99.90;;;;;;5021418;28;20041;-66
2021/07/02 07:56:57;;;;;;;6.78;4.97;;;23.90;99.90;;;;;;5022360;28;20045;-69
2021/07/02 07:59:28;;;;;;;8.35;6.00;;;23.90;99.90;;;;;;5019774;28;20045;-67
2021/07/02 08:01:55;;;;;;;7.85;7.05;;;24.00;99.90;;;;;;5019899;28;20473;-67
2021/07/02 08:04:22;;;;;;;7.53;5.38;;;24.00;99.90;;;;;;5020049;28;20054;-68
2021/07/02 08:06:52;;;;;;;6.85;6.15;;;24.10;99.90;;;;;;5021188;28;20110;-68
2021/07/02 08:09:19;;;;;;;6.72;5.82;;;24.20;99.90;;;;;;5027126;28;20147;-66
2021/07/02 08:11:47;;;;;;;7.55;5.63;;;24.20;99.90;;;;;;5023536;28;20128;-69
2021/07/02 08:14:14;;;;;;;6.90;5.28;;;24.20;99.90;;;;;;5026777;28;20099;-67
2021/07/02 08:16:41;;;;;;;6.30;5.70;;;24.30;99.90;;;;;;5023228;28;20065;-66
2021/07/02 08:19:08;;;;;;;8.57;6.20;;;24.30;99.90;;;;;;5025865;28;20037;-67
2021/07/02 08:21:35;;;;;;;6.03;5.18;;;24.30;99.90;;;;;;5022775;28;20052;-68
2021/07/02 08:24:02;;;;;;;10.60;5.97;;;24.30;99.90;;;;;;5025542;28;20080;-70
2021/07/02 08:26:29;;;;;;;6.20;5.60;;;24.30;99.90;;;;;;5024438;28;20050;-69
2021/07/02 08:31:59;;;;;;;7.57;6.15;;;24.40;99.90;;;;;;4979482;28;20050;-67
2021/07/02 08:34:26;;;;;;;6.72;6.10;;;24.50;99.90;;;;;;5016187;28;20045;-68
2021/07/02 08:36:53;;;;;;;7.05;5.57;;;24.50;99.90;;;;;;5023192;28;20490;-67
2021/07/02 08:39:20;;;;;;;6.35;5.50;;;24.50;99.90;;;;;;5025792;28;20115;-68
2021/07/02 08:41:47;;;;;;;6.75;5.57;;;24.50;99.90;;;;;;5022100;28;20045;-66
2021/07/02 08:44:14;;;;;;;8.05;6.15;;;24.50;99.90;;;;;;5019422;28;20041;-66
2021/07/02 08:46:44;;;;;;;10.68;6.57;;;24.50;99.90;;;;;;5024413;28;20122;-66
2021/07/02 08:49:27;;;;;;;6.63;6.13;;;24.60;99.90;;;;;;5023554;28;20212;-65
2021/07/02 08:51:55;;;;;;;7.30;6.63;;;24.60;99.90;;;;;;5023359;28;20119;-71
2021/07/02 08:54:22;;;;;;;5.75;5.15;;;24.70;99.90;;;;;;5026047;28;20042;-66
2021/07/02 08:56:58;;;;;;;7.07;5.75;;;24.80;99.90;;;;;;5027403;28;20053;-66
2021/07/02 08:59:27;;;;;;;8.43;6.18;;;24.90;99.90;;;;;;5023034;28;20045;-67
2021/07/02 09:01:55;;;;;;;7.53;5.03;;;24.90;99.90;;;;;;5023855;28;21611;-66
2021/07/02 09:04:35;;;;;;;8.38;5.00;;;25.00;99.90;;;;;;5025352;28;20038;-66
2021/07/02 09:07:13;;;;;;;5.05;4.65;;;25.10;99.90;;;;;;5024447;28;20049;-71
2021/07/02 09:09:50;;;;;;;6.60;5.93;;;25.30;99.90;;;;;;5026022;28;20037;-67
2021/07/02 09:12:19;;;;;;;7.03;5.22;;;25.30;99.90;;;;;;5020335;28;20049;-67
2021/07/02 09:14:57;;;;;;;8.75;5.85;;;25.40;99.90;;;;;;5024578;28;20130;-66
2021/07/02 09:17:25;;;;;;;7.05;6.32;;;25.40;99.90;;;;;;5022273;28;20045;-67
2021/07/02 09:20:14;;;;;;;7.40;6.00;;;25.40;99.90;;;;;;5021698;28;20094;-67
2021/07/02 09:22:44;;;;;;;7.85;5.95;;;25.50;99.90;;;;;;5018943;28;20139;-65
2021/07/02 09:25:21;;;;;;;5.47;4.97;;;25.50;99.90;;;;;;5024030;28;20080;-69
2021/07/02 09:27:49;;;;;;;5.65;4.97;;;25.50;99.90;;;;;;5021302;28;20050;-70
2021/07/02 09:30:19;;;;;;;5.13;4.63;;;25.50;99.90;;;;;;5021677;28;20065;-67
2021/07/02 09:33:04;;;;;;;7.10;6.50;;;25.50;99.90;;;;;;5021754;28;20514;-67
2021/07/02 09:35:34;;;;;;;9.32;5.60;;;25.60;99.90;;;;;;5024867;28;20049;-68
2021/07/02 09:38:03;;;;;;;7.70;5.78;;;25.60;99.90;;;;;;5019627;28;20053;-68
2021/07/02 09:40:35;;;;;;;5.88;5.28;;;25.70;99.90;;;;;;5024821;28;20581;-68
2021/07/02 09:43:32;;;;;;;6.35;5.85;;;25.70;99.90;;;;;;5022437;28;20045;-68
2021/07/02 09:46:04;;;;;;;6.90;5.68;;;25.70;99.90;;;;;;5020637;28;20046;-70
2021/07/02 09:48:43;;;;;;;6.68;6.05;;;25.60;99.90;;;;;;5024905;28;20041;-67
2021/07/02 09:51:11;;;;;;;5.85;5.25;;;25.60;99.90;;;;;;5023238;28;20107;-71
2021/07/02 09:53:38;;;;;;;6.78;5.18;;;25.70;99.90;;;;;;5022975;28;20047;-70
2021/07/02 09:56:07;;;;;;;6.88;5.13;;;25.80;99.90;;;;;;5022021;28;20412;-67
2021/07/02 09:58:39;;;;;;;7.23;5.97;;;25.80;99.90;;;;;;5024359;28;20129;-68
2021/07/02 10:01:10;;;;;;;5.85;4.85;;;26.00;99.90;;;;;;5024925;28;20053;-68
2021/07/02 10:03:44;;;;;;;6.32;5.72;;;26.00;99.90;;;;;;5024283;28;20045;-70
2021/07/02 10:06:25;;;;;;;7.53;5.60;;;26.10;99.90;;;;;;5017797;28;20045;-71
2021/07/02 10:08:52;;;;;;;5.93;4.90;;;26.10;99.90;;;;;;5021943;28;20045;-67
2021/07/02 10:11:19;;;;;;;7.07;5.15;;;26.20;99.90;;;;;;5024400;28;20069;-69
2021/07/02 10:13:51;;;;;;;6.10;5.53;;;26.30;99.90;;;;;;5020505;28;20045;-67
2021/07/02 10:16:18;;;;;;;5.97;5.30;;;26.50;99.90;;;;;;5025744;28;20037;-68
2021/07/02 10:18:48;;;;;;;5.32;4.85;;;26.60;99.90;;;;;;5022635;28;20475;-67
2021/07/02 10:21:16;;;;;;;5.53;5.00;;;26.70;99.90;;;;;;5023185;28;20545;-68
2021/07/02 10:23:48;;;;;;;4.93;4.30;;;26.80;99.90;;;;;;5021044;28;20348;-67
2021/07/02 10:26:19;;;;;;;6.20;5.60;;;26.80;99.90;;;;;;5022383;28;20051;-67
2021/07/02 10:28:48;;;;;;;5.90;4.28;;;26.70;99.90;;;;;;5024170;28;20115;-66
2021/07/02 10:31:17;;;;;;;5.65;4.93;;;26.70;99.90;;;;;;5021724;28;20084;-68
2021/07/02 10:33:48;;;;;;;4.95;4.40;;;26.70;99.90;;;;;;5016838;28;20045;-67
2021/07/02 10:36:17;;;;;;;5.55;4.00;;;26.70;99.90;;;;;;5020858;28;20041;-70
2021/07/02 10:38:47;;;;;;;5.10;4.60;;;26.70;99.90;;;;;;5024090;28;20041;-68
2021/07/02 10:41:18;;;;;;;5.03;4.63;;;26.70;99.90;;;;;;5023303;28;20079;-68
2021/07/02 10:44:05;;;;;;;7.00;4.82;;;26.70;99.90;;;;;;5022378;28;20112;-69
2021/07/02 10:46:36;;;;;;;6.43;4.88;;;26.90;99.90;;;;;;5022851;28;20120;-70
2021/07/02 10:49:11;;;;;;;9.27;4.75;;;26.90;99.90;;;;;;5022384;28;20038;-69
2021/07/02 10:51:42;;;;;;;9.10;5.57;;;26.90;99.90;;;;;;5022915;28;20454;-69
2021/07/02 10:54:12;;;;;;;5.05;4.63;;;26.80;99.90;;;;;;5021611;28;20111;-70
2021/07/02 10:56:44;;;;;;;4.60;3.60;;;26.80;99.90;;;;;;5023685;28;20049;-69
2021/07/02 10:59:14;;;;;;;8.65;4.88;;;26.90;99.90;;;;;;5022366;28;20562;-68
2021/07/02 11:02:03;;;;;;;4.55;4.15;;;26.90;99.90;;;;;;5023701;28;20038;-71
2021/07/02 11:04:41;;;;;;;5.80;5.03;;;27.00;99.90;;;;;;5020369;28;20029;-65
2021/07/02 11:07:24;;;;;;;5.20;4.50;;;27.00;99.90;;;;;;5023398;28;20094;-65
2021/07/02 11:10:02;;;;;;;6.35;4.32;;;27.00;99.90;;;;;;5020920;28;20041;-70
2021/07/02 11:12:30;;;;;;;4.20;3.80;;;27.00;99.90;;;;;;5021544;28;20089;-67
2021/07/02 11:14:58;;;;;;;5.05;4.55;;;27.10;99.90;;;;;;5021521;28;20045;-70
2021/07/02 11:17:36;;;;;;;4.40;3.60;;;27.20;99.90;;;;;;5022472;28;20184;-68
2021/07/02 11:20:13;;;;;;;5.35;4.20;;;27.40;99.90;;;;;;5021353;28;20547;-68
2021/07/02 11:22:41;;;;;;;5.28;4.72;;;27.50;99.90;;;;;;5020673;28;20049;-68
2021/07/02 11:25:11;;;;;;;4.53;4.03;;;27.50;99.90;;;;;;5021710;28;20128;-67
2021/07/02 11:27:44;;;;;;;4.97;4.60;;;27.60;99.90;;;;;;5035364;28;20444;-67
2021/07/02 11:30:33;;;;;;;5.05;4.55;;;27.70;99.90;;;;;;5020118;28;20045;-67
2021/07/02 11:33:09;;;;;;;6.53;4.13;;;27.80;99.90;;;;;;5015947;28;20104;-65
2021/07/02 11:35:38;;;;;;;4.38;3.97;;;27.90;99.90;;;;;;5023830;28;20539;-65
2021/07/02 11:38:15;;;;;;;5.55;4.32;;;27.90;99.90;;;;;;5019146;28;20459;-66
2021/07/02 11:40:46;;;;;;;4.30;3.90;;;28.00;99.90;;;;;;5021442;28;20543;-66
2021/07/02 11:43:28;;;;;;;4.53;4.18;;;28.00;99.90;;;;;;5021490;28;20041;-69
2021/07/02 11:46:01;;;;;;;5.15;4.25;;;28.10;99.90;;;;;;5019506;28;20124;-69
2021/07/02 11:48:30;;;;;;;5.32;3.90;;;28.10;99.90;;;;;;5023029;28;20099;-66
2021/07/02 11:51:09;;;;;;;4.03;3.72;;;28.00;99.90;;;;;;5019892;28;20050;-66
2021/07/02 11:53:53;;;;;;;5.78;3.80;;;28.00;99.90;;;;;;5037956;28;20053;-67
2021/07/02 11:56:37;;;;;;;4.38;3.97;;;28.00;99.90;;;;;;5019339;28;20099;-66
2021/07/02 11:59:11;;;;;;;5.50;4.97;;;28.10;99.90;;;;;;5022904;28;20045;-66
2021/07/02 12:01:41;;;;;;;5.13;4.68;;;28.20;99.90;;;;;;5050578;28;20486;-70
2021/07/02 12:04:31;;;;;;;5.57;4.72;;;28.20;99.90;;;;;;5019458;28;20045;-67
2021/07/02 12:07:06;;;;;;;7.95;5.57;;;28.20;99.90;;;;;;5021124;28;20034;-67
2021/07/02 12:09:42;;;;;;;3.83;3.53;;;28.20;99.90;;;;;;5020261;28;20057;-65
2021/07/02 12:12:19;;;;;;;6.50;5.20;;;28.20;99.90;;;;;;5021535;28;20048;-67
2021/07/02 12:14:47;;;;;;;6.63;4.15;;;28.10;99.90;;;;;;5020845;28;20165;-65
2021/07/02 12:17:14;;;;;;;6.05;4.78;;;28.10;99.90;;;;;;5022803;28;20767;-66
2021/07/02 12:19:41;;;;;;;4.82;4.38;;;28.20;99.90;;;;;;5022214;28;20041;-67
2021/07/02 12:22:12;;;;;;;5.47;4.47;;;28.30;99.90;;;;;;5021254;28;20034;-66
2021/07/02 12:24:48;;;;;;;4.80;3.75;;;28.40;99.90;;;;;;5020163;28;20037;-69
2021/07/02 12:27:20;;;;;;;3.75;3.47;;;28.60;99.90;;;;;;5023163;28;20037;-69
2021/07/02 12:29:56;;;;;;;4.88;4.28;;;28.70;99.90;;;;;;5019097;28;20091;-67
2021/07/02 12:32:28;;;;;;;6.13;4.38;;;28.70;99.90;;;;;;5023331;28;20111;-67
2021/07/02 12:35:07;;;;;;;5.22;4.28;;;28.40;99.90;;;;;;5020457;28;20492;-66
2021/07/02 12:37:33;;;;;;;4.07;3.72;;;28.30;99.90;;;;;;5021881;28;20057;-65
2021/07/02 12:40:01;;;;;;;4.18;3.80;;;28.40;99.90;;;;;;5020701;28;20042;-67
2021/07/02 12:42:39;;;;;;;9.40;3.85;;;28.50;99.90;;;;;;5019374;28;20111;-66
2021/07/02 12:45:14;;;;;;;5.65;3.78;;;28.60;99.90;;;;;;5022634;28;20462;-65
2021/07/02 12:47:42;;;;;;;4.43;4.00;;;28.60;99.90;;;;;;5020828;28;20589;-66
2021/07/02 12:50:17;;;;;;;4.03;3.72;;;28.50;99.90;;;;;;5020623;28;20045;-68
2021/07/02 12:55:39;;;;;;;6.43;4.15;;;28.30;99.90;;;;;;5024867;28;20088;-67
2021/07/02 12:58:06;;;;;;;5.70;3.60;;;28.30;99.90;;;;;;5023675;28;20049;-66